Time;durP1;ratioP1;P1;durP2;ratioP2;P2;SDS_P1;SDS_P2;PMS_P1;PMS_P2;Temp;Humidity;BMP_temperature;BMP_pressure;BME280_temperature;BME280_humidity;BME280_pressure;Samples;Min_cycle;Max_cycle;Signal;HPM_P1;HPM_P2
2023/06/03 00:01:28;;;;;;;0.57;0.40;;;;;;;18.08;100.00;95004.72;5111669;28;20428;-60
2023/06/03 00:03:56;;;;;;;0.40;0.40;;;;;;;18.06;100.00;95000.78;5112395;28;20476;-59
2023/06/03 00:06:25;;;;;;;0.40;0.40;;;;;;;17.82;100.00;95008.59;5098389;28;20428;-59
2023/06/03 00:08:54;;;;;;;10.93;0.30;;;;;;;17.86;100.00;95014.91;5112052;28;20464;-60
2023/06/03 00:11:22;;;;;;;0.40;0.30;;;;;;;17.96;100.00;95014.53;5085798;28;20439;-59
2023/06/03 00:13:50;;;;;;;4.80;1.10;;;;;;;17.46;100.00;95017.84;5111764;28;20914;-59
2023/06/03 00:16:20;;;;;;;0.87;0.80;;;;;;;17.55;100.00;95018.66;5112141;28;20476;-59
2023/06/03 00:18:48;;;;;;;0.60;0.50;;;;;;;17.57;100.00;95016.41;5111791;28;20471;-60
2023/06/03 00:21:17;;;;;;;0.60;0.50;;;;;;;17.56;100.00;95017.53;5111689;28;20436;-60
2023/06/03 00:23:48;;;;;;;0.40;0.30;;;;;;;17.35;100.00;95016.63;5111581;28;20834;-59
2023/06/03 00:26:17;;;;;;;0.73;0.67;;;;;;;17.18;100.00;95015.84;5111935;28;20440;-60
2023/06/03 00:28:45;;;;;;;1.53;0.50;;;;;;;17.00;100.00;95018.53;5111494;28;21111;-59
2023/06/03 00:31:13;;;;;;;2.70;0.60;;;;;;;16.67;100.00;95011.31;5111890;28;20432;-59
2023/06/03 00:33:43;;;;;;;3.53;0.70;;;;;;;16.61;100.00;95017.91;5111676;28;20508;-59
2023/06/03 00:36:11;;;;;;;0.50;0.40;;;;;;;17.06;100.00;95014.59;5111778;28;20993;-59
2023/06/03 00:38:40;;;;;;;0.77;0.77;;;;;;;17.08;100.00;95015.06;5112059;28;20428;-59
2023/06/03 00:41:08;;;;;;;0.40;0.30;;;;;;;17.28;100.00;95004.81;5111702;28;20432;-59
2023/06/03 00:43:36;;;;;;;1.17;0.40;;;;;;;17.32;100.00;94990.47;5109173;28;20940;-59
2023/06/03 00:46:05;;;;;;;0.80;0.80;;;;;;;16.97;100.00;95008.47;5111939;28;20505;-59
2023/06/03 00:48:34;;;;;;;0.40;0.30;;;;;;;16.87;100.00;94992.75;5111138;28;20427;-59
2023/06/03 00:51:04;;;;;;;0.47;0.30;;;;;;;16.92;100.00;95003.28;5111675;28;20435;-59
2023/06/03 00:53:33;;;;;;;0.40;0.27;;;;;;;17.27;100.00;95009.38;5111146;28;20473;-59
2023/06/03 00:56:01;;;;;;;0.73;0.43;;;;;;;17.41;100.00;95009.97;5111349;28;20470;-59
2023/06/03 00:58:31;;;;;;;2.77;0.30;;;;;;;17.10;100.00;95004.81;5111393;28;20445;-59
2023/06/03 01:01:00;;;;;;;0.60;0.47;;;;;;;17.31;100.00;95014.88;5111391;28;20459;-59
2023/06/03 01:03:28;;;;;;;0.50;0.50;;;;;;;17.59;100.00;95016.88;5111531;28;20471;-59
2023/06/03 01:06:14;;;;;;;0.40;0.20;;;;;;;17.65;100.00;95029.03;5111845;28;20555;-59
2023/06/03 01:08:51;;;;;;;1.50;0.47;;;;;;;17.28;100.00;95029.69;5115527;28;20477;-59
2023/06/03 01:11:30;;;;;;;2.00;0.50;;;;;;;16.28;100.00;95031.69;5114581;28;20439;-59
2023/06/03 01:14:08;;;;;;;0.53;0.40;;;;;;;16.24;100.00;94982.59;5114905;28;20471;-59
2023/06/03 01:16:41;;;;;;;0.50;0.30;;;;;;;16.45;100.00;95030.91;5115482;28;20798;-59
2023/06/03 01:19:26;;;;;;;1.67;0.47;;;;;;;16.94;100.00;95027.06;5115087;28;20509;-59
2023/06/03 01:22:00;;;;;;;0.40;0.30;;;;;;;17.24;100.00;95020.72;5101503;28;20443;-59
2023/06/03 01:24:32;;;;;;;0.80;0.30;;;;;;;17.08;100.00;95027.66;5114827;28;20518;-59
2023/06/03 01:27:00;;;;;;;0.50;0.30;;;;;;;16.75;100.00;95032.72;5114251;28;20492;-59
2023/06/03 01:29:29;;;;;;;1.37;0.50;;;;;;;16.75;100.00;95035.38;5114562;28;20468;-59
2023/06/03 01:31:58;;;;;;;0.43;0.30;;;;;;;17.04;100.00;95032.88;5114099;28;20848;-59
2023/06/03 01:34:27;;;;;;;0.40;0.40;;;;;;;17.13;100.00;95035.53;5114505;28;20451;-59
2023/06/03 01:36:57;;;;;;;0.70;0.40;;;;;;;17.28;100.00;95029.69;5114112;28;20500;-58
2023/06/03 01:39:27;;;;;;;0.60;0.60;;;;;;;17.07;100.00;95028.78;5114607;28;20516;-59
2023/06/03 01:41:57;;;;;;;0.40;0.27;;;;;;;16.95;100.00;95009.91;5114752;28;20440;-59
2023/06/03 01:44:25;;;;;;;0.50;0.40;;;;;;;16.62;100.00;95030.19;5114803;28;20480;-59
2023/06/03 01:46:54;;;;;;;0.50;0.30;;;;;;;16.76;100.00;95025.47;5113643;28;20948;-59
2023/06/03 01:49:23;;;;;;;0.40;0.30;;;;;;;16.86;100.00;95020.59;5114824;28;20470;-59
2023/06/03 01:51:51;;;;;;;0.40;0.30;;;;;;;16.78;100.00;95020.59;5100842;28;20523;-59
2023/06/03 01:54:25;;;;;;;0.73;0.47;;;;;;;16.78;100.00;95013.34;5114304;28;20439;-59
2023/06/03 01:56:53;;;;;;;0.60;0.40;;;;;;;16.91;100.00;95014.28;5113993;28;20485;-59
2023/06/03 01:59:24;;;;;;;0.40;0.30;;;;;;;16.86;100.00;95014.44;5114332;28;20860;-59
2023/06/03 02:01:53;;;;;;;0.50;0.37;;;;;;;16.84;100.00;95020.13;5114202;28;20487;-58
2023/06/03 02:04:21;;;;;;;0.83;0.80;;;;;;;16.38;100.00;95018.03;5113829;28;20495;-59
2023/06/03 02:06:51;;;;;;;0.87;0.60;;;;;;;16.37;100.00;95007.63;5114249;28;20427;-58
2023/06/03 02:09:21;;;;;;;1.60;0.40;;;;;;;16.54;100.00;95013.03;5113764;28;20446;-58
2023/06/03 02:11:49;;;;;;;0.40;0.40;;;;;;;16.71;100.00;95002.34;5113916;28;20519;-58
2023/06/03 02:14:18;;;;;;;0.50;0.33;;;;;;;16.94;100.00;95002.97;5113653;28;20462;-58
2023/06/03 02:16:48;;;;;;;0.50;0.30;;;;;;;16.77;100.00;95005.66;5113310;28;20440;-58
2023/06/03 02:19:18;;;;;;;0.40;0.20;;;;;;;16.87;100.00;94994.63;5113724;28;20428;-58
2023/06/03 02:21:48;;;;;;;0.40;0.30;;;;;;;16.81;100.00;95011.94;5114115;28;20844;-58
2023/06/03 02:24:16;;;;;;;0.40;0.30;;;;;;;16.76;100.00;95014.78;5113872;28;20530;-58
2023/06/03 02:26:49;;;;;;;0.50;0.30;;;;;;;17.02;100.00;95018.25;5113693;28;20440;-59
2023/06/03 02:29:19;;;;;;;0.47;0.30;;;;;;;17.10;100.00;95017.44;5113378;28;20962;-58
2023/06/03 02:31:49;;;;;;;0.53;0.53;;;;;;;17.03;100.00;95019.78;5113097;28;20460;-58
2023/06/03 02:34:17;;;;;;;0.40;0.30;;;;;;;16.97;100.00;95015.72;5113528;28;20431;-58
2023/06/03 02:36:46;;;;;;;0.73;0.67;;;;;;;17.07;100.00;95016.19;5113132;28;20432;-58
2023/06/03 02:39:15;;;;;;;0.50;0.40;;;;;;;17.11;100.00;95016.31;5113362;28;20435;-59
2023/06/03 02:41:45;;;;;;;1.50;0.30;;;;;;;17.15;100.00;95023.41;5113362;28;20436;-58
2023/06/03 02:44:14;;;;;;;0.43;0.37;;;;;;;16.79;100.00;94960.63;5113241;28;20577;-58
2023/06/03 02:46:42;;;;;;;0.40;0.20;;;;;;;17.02;100.00;95026.28;5113141;28;20446;-58
2023/06/03 02:49:13;;;;;;;0.90;0.90;;;;;;;16.67;100.00;95033.50;5113042;28;20823;-58
2023/06/03 02:51:42;;;;;;;0.50;0.40;;;;;;;15.97;100.00;95022.16;5112918;28;20464;-59
2023/06/03 02:54:10;;;;;;;9.70;0.60;;;;;;;15.71;100.00;95032.75;5100331;28;20472;-58
2023/06/03 02:56:39;;;;;;;0.50;0.50;;;;;;;15.85;100.00;95033.44;5112616;28;20447;-59
2023/06/03 02:59:07;;;;;;;0.60;0.30;;;;;;;15.76;100.00;95005.91;5113215;28;20438;-58
2023/06/03 03:01:37;;;;;;;2.57;1.43;;;;;;;16.14;100.00;95028.34;5112936;28;20484;-58
2023/06/03 03:04:05;;;;;;;0.60;0.50;;;;;;;16.41;100.00;95024.63;5112121;28;20436;-58
2023/06/03 03:06:37;;;;;;;0.60;0.43;;;;;;;16.16;100.00;95028.03;5113330;28;20463;-58
2023/06/03 03:09:05;;;;;;;0.90;0.40;;;;;;;15.75;100.00;95033.72;5112786;28;20432;-58
2023/06/03 03:11:33;;;;;;;1.03;0.70;;;;;;;15.50;100.00;95037.06;5112894;28;20439;-58
2023/06/03 03:14:03;;;;;;;0.50;0.40;;;;;;;15.45;100.00;94981.06;5112346;28;20429;-58
2023/06/03 03:16:31;;;;;;;0.40;0.40;;;;;;;16.38;100.00;95034.06;5112963;28;20486;-58
2023/06/03 03:19:00;;;;;;;0.60;0.60;;;;;;;16.38;100.00;95039.41;5112293;28;20465;-58
2023/06/03 03:21:28;;;;;;;0.40;0.30;;;;;;;16.68;100.00;95034.28;5112954;28;20439;-58
2023/06/03 03:23:58;;;;;;;0.50;0.33;;;;;;;16.65;100.00;95038.38;5112309;28;20466;-58
2023/06/03 03:26:27;;;;;;;0.50;0.50;;;;;;;16.50;100.00;95036.91;5113077;28;20500;-58
2023/06/03 03:28:55;;;;;;;0.60;0.40;;;;;;;15.91;100.00;95042.91;5111480;28;21087;-58
2023/06/03 03:31:23;;;;;;;0.50;0.40;;;;;;;15.67;100.00;95037.91;5112672;28;20436;-58
2023/06/03 03:33:52;;;;;;;0.50;0.30;;;;;;;15.85;100.00;95052.94;5112328;28;20439;-58
2023/06/03 03:36:22;;;;;;;0.83;0.83;;;;;;;16.24;100.00;95046.00;5112285;28;20478;-58
2023/06/03 03:39:00;;;;;;;0.40;0.30;;;;;;;16.73;100.00;95063.56;5106191;28;20468;-58
2023/06/03 03:41:30;;;;;;;0.70;0.70;;;;;;;16.58;100.00;95064.00;5106970;28;20474;-58
2023/06/03 03:43:59;;;;;;;0.70;0.60;;;;;;;16.06;100.00;95079.91;5112258;28;20440;-58
2023/06/03 03:46:28;;;;;;;0.60;0.60;;;;;;;15.99;100.00;95082.22;5112101;28;20998;-59
2023/06/03 03:48:57;;;;;;;1.33;0.83;;;;;;;16.14;100.00;95087.16;5112345;28;20556;-58
2023/06/03 03:51:25;;;;;;;0.53;0.40;;;;;;;16.54;100.00;95076.44;5112023;28;20435;-58
2023/06/03 03:53:54;;;;;;;0.50;0.40;;;;;;;16.81;100.00;95076.16;5112457;28;20529;-58
2023/06/03 03:56:23;;;;;;;0.50;0.40;;;;;;;16.72;100.00;95062.00;5112448;28;20823;-57
2023/06/03 03:58:55;;;;;;;0.50;0.50;;;;;;;16.78;100.00;95088.28;5111901;28;20531;-57
2023/06/03 04:01:23;;;;;;;0.50;0.30;;;;;;;16.07;100.00;95094.03;5111991;28;20428;-57
2023/06/03 04:03:55;;;;;;;0.40;0.30;;;;;;;16.45;100.00;95092.44;5112363;28;20527;-58
2023/06/03 04:06:32;;;;;;;0.60;0.40;;;;;;;16.92;100.00;95090.84;5111819;28;20475;-57
2023/06/03 04:09:02;;;;;;;0.60;0.30;;;;;;;16.72;100.00;95089.53;5112116;28;20505;-58
2023/06/03 04:11:36;;;;;;;0.50;0.40;;;;;;;16.98;100.00;95094.91;5112555;28;20444;-57
2023/06/03 04:14:10;;;;;;;0.50;0.43;;;;;;;16.61;100.00;95082.13;5111632;28;20447;-57
2023/06/03 04:16:51;;;;;;;0.40;0.30;;;;;;;17.06;100.00;95116.34;5112110;28;20436;-57
2023/06/03 04:19:30;;;;;;;0.97;0.97;;;;;;;16.88;100.00;95104.06;5111778;28;20943;-57
2023/06/03 04:22:00;;;;;;;4.63;0.47;;;;;;;16.77;100.00;95116.19;5112065;28;20436;-57
2023/06/03 04:24:28;;;;;;;0.40;0.30;;;;;;;17.23;100.00;95115.56;5112308;28;20432;-57
2023/06/03 04:26:57;;;;;;;0.40;0.20;;;;;;;17.43;100.00;95114.16;5111579;28;20442;-57
2023/06/03 04:29:27;;;;;;;0.50;0.40;;;;;;;17.43;100.00;95114.16;5111904;28;20472;-57
2023/06/03 04:31:55;;;;;;;0.60;0.40;;;;;;;17.49;100.00;95119.03;5111766;28;20526;-57
2023/06/03 04:34:28;;;;;;;0.63;0.50;;;;;;;17.33;100.00;95125.19;5111807;28;20550;-57
2023/06/03 04:36:56;;;;;;;1.90;0.43;;;;;;;17.79;100.00;95117.25;5111572;28;20540;-57
2023/06/03 04:39:26;;;;;;;0.50;0.40;;;;;;;17.89;100.00;95116.13;5112216;28;20867;-57
2023/06/03 04:41:55;;;;;;;0.40;0.30;;;;;;;17.75;100.00;95117.13;5115537;28;20439;-58
2023/06/03 04:44:23;;;;;;;0.40;0.30;;;;;;;17.63;100.00;95108.16;5115523;28;20436;-58
2023/06/03 04:46:53;;;;;;;0.50;0.50;;;;;;;17.47;100.00;95115.09;5115066;28;20475;-58
2023/06/03 04:49:22;;;;;;;0.50;0.40;;;;;;;17.61;100.00;95115.72;5116056;28;20439;-60
2023/06/03 04:51:50;;;;;;;0.50;0.50;;;;;;;17.85;100.00;95117.88;5088651;28;20489;-60
2023/06/03 04:54:23;;;;;;;2.30;0.43;;;;;;;18.06;100.00;95116.88;5101774;28;20444;-60
2023/06/03 04:56:52;;;;;;;0.40;0.20;;;;;;;18.37;97.26;95111.22;5115489;28;20865;-59
2023/06/03 04:59:20;;;;;;;0.40;0.27;;;;;;;18.40;96.14;95113.25;5101528;28;20554;-59
2023/06/03 05:01:50;;;;;;;0.40;0.20;;;;;;;18.87;92.59;95101.34;5115155;28;20847;-60
2023/06/03 05:04:21;;;;;;;1.13;0.40;;;;;;;19.12;89.23;95109.56;5114897;28;20461;-60
2023/06/03 05:06:50;;;;;;;0.57;0.47;;;;;;;18.85;90.63;95116.19;5115165;28;20475;-60
2023/06/03 05:09:19;;;;;;;0.57;0.43;;;;;;;18.59;91.37;95102.94;5115234;28;20859;-60
2023/06/03 05:11:48;;;;;;;0.40;0.30;;;;;;;18.77;90.78;95117.06;5115102;28;20432;-60
2023/06/03 05:14:16;;;;;;;0.90;0.40;;;;;;;18.47;89.85;95084.06;5114958;28;20598;-60
2023/06/03 05:16:44;;;;;;;0.40;0.30;;;;;;;18.78;89.42;95115.94;5115074;28;20437;-61
2023/06/03 05:19:13;;;;;;;0.60;0.50;;;;;;;18.87;89.59;95111.31;5114947;28;20555;-61
2023/06/03 05:21:43;;;;;;;0.40;0.30;;;;;;;19.15;91.02;95117.72;5114960;28;20943;-61
2023/06/03 05:24:12;;;;;;;0.63;0.63;;;;;;;18.69;93.48;95126.75;5114673;28;20432;-62
2023/06/03 05:26:40;;;;;;;0.57;0.57;;;;;;;18.63;94.45;95117.28;5115067;28;20844;-63
2023/06/03 05:29:09;;;;;;;0.60;0.60;;;;;;;19.00;94.08;95119.09;5114233;28;20893;-61
2023/06/03 05:31:37;;;;;;;0.50;0.30;;;;;;;19.25;89.59;95111.19;5114431;28;20465;-64
2023/06/03 05:34:06;;;;;;;0.40;0.23;;;;;;;19.48;89.61;95113.22;5114653;28;20816;-62
2023/06/03 05:36:35;;;;;;;0.40;0.20;;;;;;;19.33;89.16;95092.28;5114164;28;20507;-63
2023/06/03 05:39:05;;;;;;;0.97;0.30;;;;;;;19.78;86.81;95105.84;5114922;28;20459;-64
2023/06/03 05:41:34;;;;;;;0.50;0.50;;;;;;;19.38;88.11;95102.88;5113945;28;20475;-66
2023/06/03 05:44:02;;;;;;;0.40;0.30;;;;;;;19.75;86.25;95114.56;5114697;28;20559;-67
2023/06/03 05:46:31;;;;;;;0.40;0.30;;;;;;;20.00;84.60;95112.72;5113913;28;20983;-65
2023/06/03 05:48:59;;;;;;;0.50;0.40;;;;;;;19.67;84.63;95106.56;5114508;27;20479;-64
2023/06/03 05:51:27;;;;;;;0.60;0.60;;;;;;;19.85;83.89;95110.66;5113516;28;20479;-65
2023/06/03 05:53:56;;;;;;;0.40;0.40;;;;;;;20.17;83.46;95123.28;5114475;28;20444;-65
2023/06/03 05:56:26;;;;;;;0.57;0.53;;;;;;;19.78;84.84;95113.13;5114367;28;20436;-66
2023/06/03 05:58:54;;;;;;;0.70;0.70;;;;;;;19.87;86.06;95125.34;5114152;28;20447;-66
2023/06/03 06:01:23;;;;;;;0.50;0.43;;;;;;;20.27;84.79;95110.22;5113691;28;20932;-66
2023/06/03 06:03:51;;;;;;;2.40;2.30;;;;;;;19.40;88.64;95116.78;5113961;28;20545;-65
2023/06/03 06:06:20;;;;;;;3.53;1.60;;;;;;;18.90;100.00;95126.75;5113845;28;20471;-65
2023/06/03 06:08:48;;;;;;;0.50;0.40;;;;;;;18.52;100.00;95128.72;5113906;28;20448;-64
2023/06/03 06:11:17;;;;;;;2.77;1.53;;;;;;;17.70;100.00;95071.72;5113871;28;20947;-66
2023/06/03 06:13:47;;;;;;;0.80;0.50;;;;;;;18.23;100.00;95134.81;5129189;28;20436;-64
2023/06/03 06:16:15;;;;;;;1.20;1.10;;;;;;;18.39;100.00;95122.44;5114694;28;20432;-65
2023/06/03 06:18:43;;;;;;;1.33;0.90;;;;;;;18.57;100.00;95140.03;5114012;28;20932;-65
2023/06/03 06:21:14;;;;;;;0.53;0.53;;;;;;;19.22;100.00;95136.03;5113972;28;20508;-65
2023/06/03 06:23:43;;;;;;;0.80;0.80;;;;;;;19.52;100.00;95141.03;5113558;28;20435;-65
2023/06/03 06:26:14;;;;;;;0.63;0.47;;;;;;;19.56;100.00;95133.06;5113484;28;20501;-65
2023/06/03 06:28:44;;;;;;;1.03;0.90;;;;;;;18.84;100.00;95118.13;5113322;28;20545;-67
2023/06/03 06:31:16;;;;;;;0.80;0.60;;;;;;;18.99;100.00;95143.63;5113886;28;20457;-66
2023/06/03 06:33:48;;;;;;;0.60;0.50;;;;;;;19.40;100.00;95134.81;5100059;28;20432;-66
2023/06/03 06:36:29;;;;;;;0.40;0.30;;;;;;;19.74;99.74;95121.06;5113520;28;20944;-67
2023/06/03 06:38:58;;;;;;;1.43;0.60;;;;;;;19.54;99.75;95111.91;5113299;28;20448;-67
2023/06/03 06:41:27;;;;;;;0.40;0.37;;;;;;;20.03;97.69;95118.22;5112394;28;20440;-66
2023/06/03 06:43:56;;;;;;;0.83;0.80;;;;;;;19.86;93.54;95086.13;5113679;28;20431;-66
2023/06/03 06:46:26;;;;;;;0.50;0.40;;;;;;;20.52;88.53;95123.69;5112497;28;21009;-66
2023/06/03 06:48:54;;;;;;;1.20;1.20;;;;;;;20.21;88.08;95118.81;5113274;28;20450;-66
2023/06/03 06:51:22;;;;;;;1.03;1.00;;;;;;;20.18;88.65;95114.09;5112739;28;20939;-68
2023/06/03 06:53:52;;;;;;;1.10;1.00;;;;;;;19.90;85.98;95116.63;5113372;28;20468;-67
2023/06/03 06:56:21;;;;;;;4.37;0.97;;;;;;;20.16;83.98;95116.34;5112822;28;20436;-54
2023/06/03 06:58:49;;;;;;;0.73;0.50;;;;;;;20.67;87.46;95107.63;5113042;28;20436;-59
2023/06/03 07:01:18;;;;;;;0.50;0.40;;;;;;;21.62;82.78;95125.09;5098957;28;20451;-62
2023/06/03 07:03:48;;;;;;;0.60;0.40;;;;;;;21.63;80.17;95118.59;5113329;28;20449;-59
2023/06/03 07:06:16;;;;;;;0.40;0.30;;;;;;;21.69;78.85;95114.50;5112198;28;20427;-59
2023/06/03 07:08:44;;;;;;;0.50;0.40;;;;;;;21.81;78.07;95114.44;5112523;28;20436;-59
2023/06/03 07:11:13;;;;;;;1.23;0.30;;;;;;;22.18;80.77;95113.16;5112733;28;20501;-59
2023/06/03 07:13:41;;;;;;;1.13;0.43;;;;;;;22.34;76.27;95121.28;5112855;28;20970;-59
2023/06/03 07:16:10;;;;;;;0.50;0.50;;;;;;;21.77;75.33;95122.44;5112541;28;20500;-59
2023/06/03 07:18:38;;;;;;;0.40;0.20;;;;;;;21.81;74.93;95123.31;5112519;28;20493;-60
2023/06/03 07:21:08;;;;;;;1.23;1.23;;;;;;;22.60;71.83;95119.59;5112711;28;20446;-60
2023/06/03 07:23:36;;;;;;;0.50;0.40;;;;;;;22.67;74.49;95113.59;5111942;28;20440;-60
2023/06/03 07:26:05;;;;;;;0.50;0.40;;;;;;;23.20;72.91;95114.78;5112433;28;20466;-61
2023/06/03 07:28:37;;;;;;;0.40;0.40;;;;;;;23.61;69.27;95111.44;5111850;28;20498;-62
2023/06/03 07:31:06;;;;;;;1.17;0.87;;;;;;;23.73;68.32;95111.28;5112722;28;20436;-63
2023/06/03 07:33:38;;;;;;;0.40;0.30;;;;;;;23.62;70.60;95110.31;5112228;28;20462;-63
2023/06/03 07:36:09;;;;;;;0.83;0.83;;;;;;;22.92;68.80;95116.91;5112308;28;20534;-63
2023/06/03 07:38:57;;;;;;;3.93;1.37;;;;;;;23.21;68.33;95122.56;5112644;28;20454;-65
2023/06/03 07:41:40;;;;;;;1.13;0.63;;;;;;;23.43;69.89;95112.25;5112438;28;20872;-65
2023/06/03 07:44:10;;;;;;;0.80;0.50;;;;;;;23.47;67.96;95113.88;5112635;28;20439;-65
2023/06/03 07:46:41;;;;;;;0.70;0.60;;;;;;;23.60;68.75;95109.91;5112290;28;20505;-64
2023/06/03 07:49:11;;;;;;;0.43;0.40;;;;;;;23.69;66.31;95098.84;5112289;28;20518;-65
2023/06/03 07:51:42;;;;;;;0.60;0.60;;;;;;;23.85;64.44;95107.66;5112358;28;20435;-64
2023/06/03 07:54:11;;;;;;;0.90;0.40;;;;;;;24.17;62.43;95051.41;5112061;28;20478;-64
2023/06/03 07:56:40;;;;;;;0.57;0.53;;;;;;;24.23;64.79;95090.59;5112375;28;20431;-63
2023/06/03 07:59:11;;;;;;;0.60;0.60;;;;;;;24.14;64.79;95087.31;5112337;28;20431;-62
2023/06/03 08:01:40;;;;;;;1.37;1.27;;;;;;;24.15;62.97;95105.94;5111997;28;20527;-62
2023/06/03 08:04:26;;;;;;;3.27;1.03;;;;;;;23.70;61.83;95109.31;5112219;28;20432;-63
2023/06/03 08:06:56;;;;;;;0.50;0.40;;;;;;;24.02;63.11;95104.50;5111842;28;20981;-62
2023/06/03 08:09:27;;;;;;;1.10;1.10;;;;;;;24.59;62.73;95106.28;5112152;28;20432;-61
2023/06/03 08:11:57;;;;;;;0.40;0.40;;;;;;;24.37;61.47;95101.66;5112021;28;20935;-61
2023/06/03 08:14:26;;;;;;;0.47;0.37;;;;;;;24.71;60.29;95097.97;5111542;28;20839;-61
2023/06/03 08:16:57;;;;;;;0.50;0.40;;;;;;;25.19;59.41;95096.38;5116210;28;20439;-61
2023/06/03 08:19:25;;;;;;;0.70;0.60;;;;;;;25.35;57.92;95096.94;5116458;28;20516;-62
2023/06/03 08:21:57;;;;;;;0.50;0.40;;;;;;;25.83;58.85;95095.25;5115542;28;20443;-61
2023/06/03 08:24:26;;;;;;;3.10;1.37;;;;;;;25.78;56.67;95099.06;5116018;27;20439;-63
2023/06/03 08:26:55;;;;;;;0.60;0.60;;;;;;;24.87;58.86;95095.91;5115390;28;20446;-61
2023/06/03 08:29:23;;;;;;;0.43;0.40;;;;;;;25.75;57.62;95097.09;5115701;28;20499;-61
2023/06/03 08:31:51;;;;;;;0.40;0.30;;;;;;;25.59;59.15;95103.88;5115377;28;20431;-61
2023/06/03 08:34:21;;;;;;;0.40;0.30;;;;;;;26.07;57.06;95104.81;5115836;27;20440;-61
2023/06/03 08:36:49;;;;;;;0.40;0.40;;;;;;;26.42;54.66;95097.81;5115580;28;20529;-61
2023/06/03 08:39:19;;;;;;;0.50;0.40;;;;;;;25.65;56.55;95099.69;5115460;28;20435;-61
2023/06/03 08:41:52;;;;;;;0.60;0.50;;;;;;;25.79;56.77;95100.63;5115384;28;20432;-61
2023/06/03 08:44:26;;;;;;;1.30;1.20;;;;;;;25.94;56.28;95101.56;5115689;28;20439;-61
2023/06/03 08:47:06;;;;;;;0.70;0.47;;;;;;;25.74;56.50;95102.91;5115066;28;20493;-60
2023/06/03 08:49:41;;;;;;;2.03;1.10;;;;;;;26.39;55.27;95111.34;5115223;28;20459;-60
2023/06/03 08:52:10;;;;;;;0.70;0.50;;;;;;;26.93;52.16;95095.13;5115289;27;20499;-61
2023/06/03 08:54:42;;;;;;;0.40;0.40;;;;;;;26.66;53.23;95099.19;5114981;28;20440;-61
2023/06/03 08:57:19;;;;;;;0.60;0.60;;;;;;;27.47;50.78;95097.03;5114928;28;20439;-60
2023/06/03 08:59:52;;;;;;;0.43;0.43;;;;;;;27.75;51.32;95087.41;5115479;28;20445;-60
2023/06/03 09:02:20;;;;;;;0.70;0.70;;;;;;;27.65;49.40;95102.56;5115316;28;20440;-61
2023/06/03 09:04:50;;;;;;;0.40;0.30;;;;;;;28.27;50.68;95087.56;5114644;28;20436;-61
2023/06/03 09:07:21;;;;;;;0.80;0.30;;;;;;;28.20;49.21;95093.00;5114643;28;20479;-59
2023/06/03 09:09:52;;;;;;;0.50;0.50;;;;;;;28.63;49.40;95079.44;5115355;28;20440;-64
2023/06/03 09:12:20;;;;;;;0.40;0.33;;;;;;;28.12;49.82;95083.25;5114832;28;20499;-64
2023/06/03 09:14:49;;;;;;;0.50;0.40;;;;;;;28.49;47.87;95082.16;5114808;28;20447;-62
2023/06/03 09:17:18;;;;;;;0.73;0.60;;;;;;;28.65;48.55;95075.16;5115075;28;20446;-65
2023/06/03 09:19:47;;;;;;;0.40;0.30;;;;;;;27.58;49.41;95078.78;5115218;28;20443;-64
2023/06/03 09:22:17;;;;;;;0.40;0.30;;;;;;;27.93;45.57;95080.09;5113879;28;20443;-63
2023/06/03 09:24:46;;;;;;;0.40;0.40;;;;;;;27.65;47.96;95073.34;5115057;28;20440;-63
2023/06/03 09:27:15;;;;;;;0.90;0.47;;;;;;;27.83;49.30;95072.66;5112354;28;20966;-63
2023/06/03 09:29:44;;;;;;;0.50;0.50;;;;;;;27.39;49.50;95062.78;5103796;28;20530;-65
2023/06/03 09:32:12;;;;;;;0.50;0.50;;;;;;;27.08;47.81;95017.09;5111895;28;20436;-65
2023/06/03 09:34:42;;;;;;;0.50;0.43;;;;;;;27.54;48.08;95078.00;5114390;28;20456;-59
2023/06/03 09:37:10;;;;;;;0.50;0.40;;;;;;;28.04;47.99;95078.19;5114544;28;20795;-57
2023/06/03 09:39:40;;;;;;;0.47;0.47;;;;;;;28.33;47.68;95079.78;5114177;28;20436;-56
2023/06/03 09:42:10;;;;;;;0.70;0.50;;;;;;;27.77;48.59;95066.00;5114371;28;20467;-57
2023/06/03 09:44:41;;;;;;;0.80;0.80;;;;;;;28.25;48.70;95073.56;5114434;28;20432;-56
2023/06/03 09:47:11;;;;;;;0.50;0.50;;;;;;;27.62;49.70;95076.09;5107087;28;20455;-57
2023/06/03 09:49:40;;;;;;;0.50;0.50;;;;;;;27.69;47.73;95067.94;5108468;28;20842;-56
2023/06/03 09:52:11;;;;;;;1.40;1.30;;;;;;;27.36;43.89;95079.84;5113958;28;20851;-58
2023/06/03 09:54:41;;;;;;;0.40;0.33;;;;;;;28.55;45.86;95083.31;5113781;28;20440;-58
2023/06/03 09:57:11;;;;;;;0.43;0.40;;;;;;;27.61;47.60;95078.03;5114015;28;20461;-57
2023/06/03 09:59:44;;;;;;;0.60;0.60;;;;;;;27.73;47.18;95080.41;5114050;28;20443;-58
2023/06/03 10:02:12;;;;;;;0.40;0.30;;;;;;;28.79;45.67;95071.66;5113812;28;20959;-58
2023/06/03 10:04:44;;;;;;;0.40;0.40;;;;;;;29.39;46.44;95079.75;5113531;28;20450;-58
2023/06/03 10:07:14;;;;;;;0.70;0.63;;;;;;;29.01;45.09;95075.13;5114176;28;20875;-58
2023/06/03 10:09:44;;;;;;;0.60;0.50;;;;;;;29.08;47.68;95072.38;5113242;28;20471;-58
2023/06/03 10:12:14;;;;;;;0.97;0.30;;;;;;;29.01;47.83;95077.84;5113527;28;20448;-57
2023/06/03 10:14:48;;;;;;;0.60;0.60;;;;;;;29.09;44.94;95077.44;5087973;28;20501;-58
2023/06/03 10:17:18;;;;;;;0.60;0.33;;;;;;;29.83;46.63;95071.78;5099895;28;20476;-58
2023/06/03 10:19:47;;;;;;;0.67;0.57;;;;;;;30.02;43.24;95068.56;5113345;28;20462;-58
2023/06/03 10:22:16;;;;;;;0.60;0.60;;;;;;;30.53;43.37;95061.59;5113148;28;20786;-58
2023/06/03 10:24:46;;;;;;;0.70;0.60;;;;;;;30.40;44.28;95063.25;5113615;28;20439;-58
2023/06/03 10:27:17;;;;;;;0.80;0.80;;;;;;;30.37;43.31;95070.31;5113145;28;20504;-65
2023/06/03 10:29:49;;;;;;;0.40;0.30;;;;;;;30.62;44.79;95062.69;5110603;28;21015;-65
2023/06/03 10:32:17;;;;;;;4.33;0.53;;;;;;;30.25;42.07;95069.97;5113351;28;20427;-64
2023/06/03 10:34:47;;;;;;;0.70;0.70;;;;;;;30.81;41.86;95067.59;5113539;28;20957;-64
2023/06/03 10:37:16;;;;;;;0.53;0.40;;;;;;;31.60;39.59;95065.66;5113379;28;20507;-64
2023/06/03 10:39:45;;;;;;;0.40;0.30;;;;;;;31.95;40.49;95070.69;5129777;28;20465;-64
2023/06/03 10:42:14;;;;;;;0.60;0.60;;;;;;;30.22;40.42;95062.56;5113827;28;20431;-63
2023/06/03 10:44:42;;;;;;;0.50;0.40;;;;;;;30.23;42.47;95072.34;5112649;28;20469;-62
2023/06/03 10:47:17;;;;;;;1.63;0.97;;;;;;;30.05;43.43;95067.78;5113069;28;20435;-64
2023/06/03 10:49:51;;;;;;;0.50;0.40;;;;;;;30.01;41.44;95066.22;5112874;28;20476;-64
2023/06/03 10:52:38;;;;;;;0.60;0.50;;;;;;;29.76;42.33;95060.84;5113199;28;20427;-65
2023/06/03 10:55:18;;;;;;;0.50;0.40;;;;;;;29.70;41.20;95062.47;5112930;28;20504;-66
2023/06/03 10:57:52;;;;;;;0.40;0.30;;;;;;;30.86;41.73;95054.69;5113066;28;20761;-65
2023/06/03 11:00:55;;;;;;;1.07;1.00;;;;;;;29.87;40.56;95052.63;5112757;28;20447;-65
2023/06/03 11:03:25;;;;;;;1.43;1.00;;;;;;;29.98;40.45;95056.09;5112901;28;20931;-65
2023/06/03 11:06:15;;;;;;;0.77;0.60;;;;;;;30.32;40.41;95054.31;5112695;28;20466;-64
2023/06/03 11:09:01;;;;;;;0.40;0.30;;;;;;;30.69;40.51;95050.91;5112297;28;20514;-65
2023/06/03 11:11:58;;;;;;;0.47;0.43;;;;;;;29.92;41.48;95044.81;5086253;28;20492;-64
2023/06/03 11:14:55;;;;;;;0.70;0.67;;;;;;;29.39;43.28;95036.84;5112593;28;20447;-65
2023/06/03 11:17:27;;;;;;;0.40;0.40;;;;;;;28.51;41.66;95042.41;5112586;28;20801;-65
2023/06/03 11:19:59;;;;;;;0.80;0.30;;;;;;;28.93;40.39;95045.13;5112636;28;20441;-65
2023/06/03 11:22:44;;;;;;;1.23;0.50;;;;;;;29.44;40.41;95041.88;5111851;28;20930;-65
2023/06/03 11:25:27;;;;;;;0.50;0.43;;;;;;;29.66;39.62;95037.09;5112358;28;20964;-65
2023/06/03 11:28:35;;;;;;;0.50;0.37;;;;;;;29.74;39.31;95035.91;5105000;28;20440;-64
2023/06/03 11:31:06;;;;;;;0.63;0.40;;;;;;;29.88;40.63;95033.09;5089224;28;20438;-64
2023/06/03 11:33:35;;;;;;;0.70;0.60;;;;;;;29.42;38.87;95008.72;5112134;28;20868;-65
2023/06/03 11:36:56;;;;;;;0.53;0.50;;;;;;;29.34;39.20;95039.97;5112271;28;20443;-65
2023/06/03 11:39:26;;;;;;;0.40;0.40;;;;;;;29.99;38.60;95039.28;5092253;28;20923;-65
2023/06/03 11:42:09;;;;;;;0.40;0.40;;;;;;;30.17;38.98;95050.91;5111756;28;21031;-65
2023/06/03 11:44:41;;;;;;;0.60;0.40;;;;;;;29.36;38.60;95039.56;5111815;28;20435;-65
2023/06/03 11:47:09;;;;;;;0.60;0.30;;;;;;;29.75;38.70;95048.38;5112088;28;20432;-66